Etusivu
METAR-TAF:

METAR-TAF

Lentoasemat :

Helsinki-Vantaan lentoasema

Helsinki, Suomi

Leveyspiiri: 60-19N, Pituuspiiri: 024-58E, korkeus merenpinnasta: 51 m

Tämänhetkinen sää

Tämä raportti tehtiin 17 minuuttia sitten, kello 12.50 UTC
Tuuli 10 kn idästä/kaakosta, vaihdellen idän ja kaakon välillä
Lämpötila 25°C
Kosteus 50%
Ilmanpaine 1014 hPa
Näkyvyys 10 km tai enemmän
Muutamia pilviä 4200 ft:n korkeudessa

METAR: EFHK 221250Z 11010KT 080V140 9999 FEW042 25/14 Q1014 NOSIG

Aika: 16:07 (13:07 UTC)

Sääennuste

Tämä raportti tehtiin 1 tunti ja 43 minuuttia sitten, kello 11.24 UTC
Ennuste voimassa 22. päivästä klo 12 UTC - 23. päivään klo 12 UTC
Tuuli 10 kn idästä/kaakosta
Näkyvyys 10 km tai enemmän
Hajanaisia pilviä 4000 ft:n korkeudessa
Ajoittain
22. päivästä klo 12 UTC - 22. päivään klo 14 UTC
Hajanaisia pilviä 4000 ft:n korkeudessa, Kasvava cumulus-pilvi.

TAF: EFHK 221124Z 2212/2312 12010KT 9999 SCT040 TEMPO 2212/2214 SCT040TCU

Säähavainnot ja -ennusteet yli 4000 lentoasemalta (METAR- ja TAF-raportit).

Käytössä olevat sääasemat on merkitty karttaan keltaisilla ja punaisilla pisteillä.

Aseta hiiri pisteen päälle nähdäksesi sääaseman nimen.

Klikkaa sitten nähdäksesi säähavainnot ja -ennusteet.

Kartan vaihtaminen: klikkaa mustalla rastilla varustettuja vihreitä pisteitä, niin voit zoomata sisään; viivalla varustettua vihreää pistettä, niin voit zoomata ulos tai vihreitä nuolia, niin pääset viereisille kartoille.


METAR-TAF: